Time;durP1;ratioP1;P1;durP2;ratioP2;P2;SDS_P1;SDS_P2;PMS_P1;PMS_P2;Temp;Humidity;BMP_temperature;BMP_pressure;BME280_temperature;BME280_humidity;BME280_pressure;Samples;Min_cycle;Max_cycle;Signal;HPM_P1;HPM_P2
2023/12/31 00:02:20;;;;;;;41.70;26.40;;;;;;;7.49;80.77;100626.15;108234;1283;21983;-60
2023/12/31 00:04:45;;;;;;;42.80;27.00;;;;;;;7.52;80.91;100624.75;108164;1285;21983;-59
2023/12/31 00:07:11;;;;;;;43.50;27.30;;;;;;;7.55;81.20;100630.38;108195;1282;21995;-60
2023/12/31 00:09:38;;;;;;;40.90;24.90;;;;;;;7.57;81.29;100631.77;108314;1285;21989;-60
2023/12/31 00:12:04;;;;;;;44.10;28.50;;;;;;;7.60;81.01;100635.97;108335;1280;21989;-60
2023/12/31 00:14:30;;;;;;;38.20;25.80;;;;;;;7.61;80.91;100639.13;108157;1285;21989;-59
2023/12/31 00:16:55;;;;;;;39.70;26.70;;;;;;;7.61;80.85;100638.77;108209;1285;22027;-59
2023/12/31 00:19:21;;;;;;;41.50;26.60;;;;;;;7.59;80.53;100640.33;108284;1285;22002;-60
2023/12/31 00:21:46;;;;;;;41.90;26.20;;;;;;;7.56;80.26;100646.95;108223;1281;21994;-60
2023/12/31 00:24:12;;;;;;;47.40;26.60;;;;;;;7.52;80.04;100651.48;108125;1283;22003;-61
2023/12/31 00:26:38;;;;;;;41.90;25.90;;;;;;;7.48;80.07;100653.39;108291;1284;21985;-59
2023/12/31 00:29:03;;;;;;;40.30;25.20;;;;;;;7.44;79.91;100654.41;108341;1283;22003;-59
2023/12/31 00:31:29;;;;;;;41.20;26.30;;;;;;;7.40;79.54;100654.23;108374;1280;22041;-62
2023/12/31 00:33:56;;;;;;;38.20;26.20;;;;;;;7.37;79.87;100659.79;108344;1284;21991;-59
2023/12/31 00:36:25;;;;;;;38.80;25.60;;;;;;;7.35;80.08;100664.13;107478;1281;1003224;-60
2023/12/31 00:38:52;;;;;;;40.10;27.50;;;;;;;7.32;79.96;100664.64;108206;1280;21989;-62
2023/12/31 00:41:18;;;;;;;39.00;26.30;;;;;;;7.29;80.09;100666.21;108188;1285;21994;-60
2023/12/31 00:43:44;;;;;;;40.60;27.60;;;;;;;7.25;80.38;100666.18;108206;1285;21989;-59
2023/12/31 00:46:11;;;;;;;43.60;27.40;;;;;;;7.21;80.44;100665.63;108244;1281;22008;-62
2023/12/31 00:48:37;;;;;;;42.40;27.10;;;;;;;7.19;80.30;100665.27;108232;1285;21995;-59
2023/12/31 00:51:03;;;;;;;38.70;25.10;;;;;;;7.19;80.29;100667.89;108192;1274;21991;-59
2023/12/31 00:53:29;;;;;;;44.10;24.40;;;;;;;7.19;80.40;100668.23;108198;1285;21993;-60
2023/12/31 00:55:54;;;;;;;37.70;24.70;;;;;;;7.20;80.43;100666.33;108150;1285;22455;-59
2023/12/31 00:58:20;;;;;;;37.80;24.50;;;;;;;7.21;80.37;100670.16;108196;1284;21989;-61
2023/12/31 01:00:46;;;;;;;38.40;25.80;;;;;;;7.21;80.15;100667.38;108139;1284;21983;-62
2023/12/31 01:03:11;;;;;;;37.70;24.40;;;;;;;7.19;80.17;100665.45;108139;1281;21987;-59
2023/12/31 01:05:37;;;;;;;46.60;27.90;;;;;;;7.15;79.92;100666.45;108260;1283;21993;-61
2023/12/31 01:08:04;;;;;;;42.50;27.00;;;;;;;7.11;80.33;100665.05;108212;1285;22024;-61
2023/12/31 01:10:29;;;;;;;44.70;27.00;;;;;;;7.11;80.94;100664.86;108308;1285;21987;-59
2023/12/31 01:12:58;;;;;;;47.70;26.40;;;;;;;7.15;81.41;100672.75;108267;1280;21991;-61
2023/12/31 01:15:24;;;;;;;43.60;28.00;;;;;;;7.18;81.85;100669.45;108216;1285;21986;-61
2023/12/31 01:17:49;;;;;;;40.20;25.60;;;;;;;7.21;81.84;100671.04;108211;1285;22060;-60
2023/12/31 01:20:15;;;;;;;39.20;25.10;;;;;;;7.22;81.89;100672.10;108271;1285;21995;-60
2023/12/31 01:22:41;;;;;;;45.20;27.30;;;;;;;7.24;82.20;100671.95;108228;1285;21992;-61
2023/12/31 01:25:07;;;;;;;45.10;27.10;;;;;;;7.28;82.38;100675.62;108267;1278;21992;-59
2023/12/31 01:27:33;;;;;;;46.10;27.40;;;;;;;7.33;82.58;100680.54;108172;1285;21997;-61
2023/12/31 01:29:58;;;;;;;40.50;26.40;;;;;;;7.38;82.65;100681.09;108242;1283;22010;-61
2023/12/31 01:32:24;;;;;;;44.10;26.60;;;;;;;7.43;83.02;100683.40;108275;1285;21990;-61
2023/12/31 01:34:49;;;;;;;37.90;24.30;;;;;;;7.49;83.09;100683.25;108289;1285;21991;-62
2023/12/31 01:37:15;;;;;;;42.50;27.20;;;;;;;7.54;83.05;100680.65;108301;1285;22033;-62
2023/12/31 01:39:41;;;;;;;45.70;28.40;;;;;;;7.60;82.96;100684.88;108196;1285;21997;-59
2023/12/31 01:42:06;;;;;;;39.80;26.10;;;;;;;7.62;82.86;100685.93;108280;1284;22002;-61
2023/12/31 01:44:32;;;;;;;40.00;26.20;;;;;;;7.63;82.57;100685.77;108255;1280;21984;-61
2023/12/31 01:46:57;;;;;;;41.90;25.50;;;;;;;7.64;82.48;100683.50;108207;1285;21988;-60
2023/12/31 01:49:23;;;;;;;43.30;25.90;;;;;;;7.64;81.96;100684.54;108170;1284;21985;-62
2023/12/31 01:51:48;;;;;;;40.90;26.00;;;;;;;7.63;82.08;100679.30;108146;1284;21954;-61
2023/12/31 01:54:14;;;;;;;37.40;23.80;;;;;;;7.62;81.98;100676.32;108115;1284;21991;-61
2023/12/31 01:56:40;;;;;;;41.50;25.90;;;;;;;7.63;81.91;100673.70;108143;1285;22035;-60
2023/12/31 01:59:06;;;;;;;40.90;25.70;;;;;;;7.64;81.60;100678.60;108132;1274;21993;-59
2023/12/31 02:01:32;;;;;;;36.90;23.30;;;;;;;7.63;81.47;100676.85;108183;1284;21993;-59
2023/12/31 02:03:58;;;;;;;38.70;25.60;;;;;;;7.65;81.04;100673.89;108121;1285;21988;-60
2023/12/31 02:06:24;;;;;;;40.30;24.60;;;;;;;7.64;80.70;100672.14;108296;1283;21993;-60
2023/12/31 02:08:49;;;;;;;43.00;24.90;;;;;;;7.61;80.69;100678.41;108384;1283;21985;-62
2023/12/31 02:11:16;;;;;;;38.60;23.40;;;;;;;7.58;80.59;100678.75;108398;1280;21983;-61
2023/12/31 02:13:41;;;;;;;42.00;24.40;;;;;;;7.57;80.71;100676.13;108204;1282;21992;-60
2023/12/31 02:16:14;;;;;;;39.60;24.80;;;;;;;7.55;80.59;100680.65;108165;1284;21994;-61
2023/12/31 02:18:40;;;;;;;35.60;22.60;;;;;;;7.54;80.75;100681.70;108191;1273;23115;-61
2023/12/31 02:21:05;;;;;;;35.10;23.10;;;;;;;7.54;80.55;100680.81;108173;1285;22001;-59
2023/12/31 02:23:31;;;;;;;34.70;21.10;;;;;;;7.55;80.73;100680.65;108004;1285;22054;-59
2023/12/31 02:26:07;;;;;;;36.40;22.50;;;;;;;7.56;80.77;100681.89;108145;1285;21989;-62
2023/12/31 02:28:33;;;;;;;32.50;21.00;;;;;;;7.56;80.73;100682.75;108127;1283;22003;-59
2023/12/31 02:30:59;;;;;;;36.90;22.60;;;;;;;7.56;80.95;100688.51;108214;1284;21987;-62
2023/12/31 02:33:25;;;;;;;35.10;21.50;;;;;;;7.56;80.47;100687.81;108280;1284;22003;-61
2023/12/31 02:35:50;;;;;;;34.70;22.00;;;;;;;7.53;80.51;100686.41;108306;1283;22109;-60
2023/12/31 02:38:16;;;;;;;34.10;21.00;;;;;;;7.50;80.08;100687.10;108278;1282;21995;-59
2023/12/31 02:40:41;;;;;;;34.60;22.60;;;;;;;7.47;79.76;100690.40;108214;1281;21995;-61
2023/12/31 02:43:07;;;;;;;35.60;22.30;;;;;;;7.43;79.94;100687.77;108262;1274;21996;-61
2023/12/31 02:45:32;;;;;;;37.40;24.50;;;;;;;7.42;80.23;100691.94;108162;1274;22457;-62
2023/12/31 02:47:58;;;;;;;38.90;25.30;;;;;;;7.41;80.48;100695.25;108279;1279;22458;-62
2023/12/31 02:50:23;;;;;;;35.80;22.20;;;;;;;7.38;80.25;100694.19;108170;1284;22458;-61
2023/12/31 02:52:50;;;;;;;36.30;22.90;;;;;;;7.35;80.19;100699.05;108140;1274;22014;-61
2023/12/31 02:55:15;;;;;;;33.40;22.40;;;;;;;7.33;80.25;100697.13;108127;1285;22000;-59
2023/12/31 02:57:41;;;;;;;36.70;23.10;;;;;;;7.32;80.27;100701.99;108195;1284;21995;-60
2023/12/31 03:00:07;;;;;;;38.20;23.10;;;;;;;7.29;80.35;100707.75;108247;1284;21990;-60
2023/12/31 03:02:33;;;;;;;39.70;24.70;;;;;;;7.27;80.23;100714.03;108294;1284;22024;-59
2023/12/31 03:04:59;;;;;;;40.40;24.10;;;;;;;7.26;80.22;100717.34;108265;1281;21989;-62
2023/12/31 03:07:24;;;;;;;40.40;26.10;;;;;;;7.24;80.08;100713.31;108182;1285;22006;-60
2023/12/31 03:09:50;;;;;;;38.50;26.20;;;;;;;7.20;79.99;100712.92;108244;1284;21988;-59
2023/12/31 03:12:15;;;;;;;44.10;25.90;;;;;;;7.19;80.26;100716.23;108218;1284;22001;-59
2023/12/31 03:14:41;;;;;;;40.50;26.30;;;;;;;7.18;80.54;100711.69;108318;1281;21960;-59
2023/12/31 03:17:06;;;;;;;39.90;26.50;;;;;;;7.18;80.73;100717.27;108386;1283;21976;-59
2023/12/31 03:19:35;;;;;;;42.00;25.10;;;;;;;7.20;81.27;100732.81;108349;1283;22762;-58
2023/12/31 03:22:01;;;;;;;43.70;25.60;;;;;;;7.20;81.10;100734.91;108348;1277;21990;-62
2023/12/31 03:24:27;;;;;;;41.80;24.80;;;;;;;7.19;80.67;100734.91;108304;1285;21987;-62
2023/12/31 03:26:53;;;;;;;39.50;25.00;;;;;;;7.18;80.79;100738.21;108175;1284;22006;-62
2023/12/31 03:29:19;;;;;;;37.60;25.20;;;;;;;7.17;81.03;100738.91;108277;1275;22452;-61
2023/12/31 03:31:44;;;;;;;39.70;23.60;;;;;;;7.17;80.82;100737.51;108004;1285;21994;-62
2023/12/31 03:34:10;;;;;;;40.30;26.20;;;;;;;7.18;80.85;100741.35;108180;1284;21992;-59
2023/12/31 03:36:35;;;;;;;41.70;24.40;;;;;;;7.16;80.56;100741.34;108229;1284;22006;-62
2023/12/31 03:39:01;;;;;;;36.60;22.90;;;;;;;7.12;80.43;100742.52;108261;1280;21994;-62
2023/12/31 03:41:27;;;;;;;39.90;25.00;;;;;;;7.08;80.36;100745.82;108298;1284;22021;-62
2023/12/31 03:43:52;;;;;;;37.70;23.90;;;;;;;7.06;80.37;100746.85;108269;1278;21992;-61
2023/12/31 03:46:18;;;;;;;38.50;23.40;;;;;;;7.06;80.53;100746.34;108259;1284;22009;-59
2023/12/31 03:48:43;;;;;;;41.90;23.70;;;;;;;7.06;80.57;100748.26;108188;1285;21996;-59
2023/12/31 03:51:09;;;;;;;36.00;22.10;;;;;;;7.06;80.79;100750.52;108133;1284;21991;-59
2023/12/31 03:53:35;;;;;;;36.50;21.90;;;;;;;7.08;80.95;100753.32;108277;1284;22080;-59
2023/12/31 03:56:01;;;;;;;39.90;25.10;;;;;;;7.10;81.13;100758.39;108186;1284;21990;-60
2023/12/31 03:58:27;;;;;;;41.70;25.20;;;;;;;7.10;80.81;100758.73;108201;1284;21989;-61
2023/12/31 04:00:53;;;;;;;38.90;24.00;;;;;;;7.09;80.72;100754.02;108269;1285;22002;-62
2023/12/31 04:03:18;;;;;;;38.80;23.30;;;;;;;7.10;81.00;100753.86;108213;1284;22059;-62
2023/12/31 04:05:44;;;;;;;38.40;23.10;;;;;;;7.13;81.18;100756.85;108268;1285;22045;-62
2023/12/31 04:08:09;;;;;;;36.00;24.00;;;;;;;7.15;81.12;100760.54;108278;1281;21987;-59
2023/12/31 04:10:35;;;;;;;38.90;25.70;;;;;;;7.18;81.49;100766.31;108277;1284;21992;-60
2023/12/31 04:13:02;;;;;;;42.40;25.80;;;;;;;7.20;81.43;100766.34;108114;1281;21992;-62
2023/12/31 04:15:27;;;;;;;41.50;25.60;;;;;;;7.19;81.53;100768.77;108063;1281;21999;-63
2023/12/31 04:17:54;;;;;;;42.30;26.10;;;;;;;7.18;81.81;100772.94;108167;1284;22031;-62
2023/12/31 04:20:19;;;;;;;41.50;26.20;;;;;;;7.17;81.87;100773.47;108238;1285;21998;-60
2023/12/31 04:22:45;;;;;;;38.40;24.70;;;;;;;7.14;82.42;100778.33;108285;1281;21990;-63
2023/12/31 04:25:10;;;;;;;42.30;26.30;;;;;;;7.14;82.01;100782.16;108318;1283;21976;-60
2023/12/31 04:27:40;;;;;;;42.30;26.30;;;;;;;7.11;81.76;100786.34;108238;1285;21993;-63
2023/12/31 04:30:06;;;;;;;38.80;25.20;;;;;;;7.10;81.52;100791.55;108119;1284;21997;-63
2023/12/31 04:32:33;;;;;;;41.20;23.70;;;;;;;7.10;81.39;100790.48;108202;1281;21992;-63
2023/12/31 04:34:59;;;;;;;39.40;25.10;;;;;;;7.10;81.21;100794.52;108154;1284;21989;-63
2023/12/31 04:37:24;;;;;;;36.20;21.90;;;;;;;7.10;80.66;100795.57;108119;1283;22011;-63
2023/12/31 04:39:50;;;;;;;37.40;23.60;;;;;;;7.08;80.82;100797.30;108120;1285;21995;-60
2023/12/31 04:42:15;;;;;;;36.30;23.70;;;;;;;7.05;80.38;100803.73;108129;1284;21989;-60
2023/12/31 04:44:42;;;;;;;45.70;24.50;;;;;;;6.98;80.16;100809.08;108147;1277;22050;-60
2023/12/31 04:47:07;;;;;;;34.20;22.10;;;;;;;6.91;80.24;100810.58;108117;1280;22051;-63
2023/12/31 04:49:33;;;;;;;36.80;23.50;;;;;;;6.86;80.66;100810.54;108302;1281;21992;-60
2023/12/31 04:51:58;;;;;;;38.50;24.00;;;;;;;6.84;81.04;100817.66;108279;1277;21987;-60
2023/12/31 04:54:24;;;;;;;36.40;23.20;;;;;;;6.86;81.31;100821.70;108330;1285;21994;-61
2023/12/31 04:56:49;;;;;;;38.10;22.70;;;;;;;6.87;81.53;100823.10;108228;1285;22002;-63
2023/12/31 04:59:15;;;;;;;36.40;22.00;;;;;;;6.90;81.62;100824.35;108229;1274;22002;-64
2023/12/31 05:01:40;;;;;;;35.20;22.10;;;;;;;6.94;81.68;100828.56;108167;1277;22004;-61
2023/12/31 05:04:06;;;;;;;38.00;22.70;;;;;;;6.97;81.89;100830.17;108278;1285;22001;-63
2023/12/31 05:06:31;;;;;;;32.90;20.60;;;;;;;6.99;81.98;100835.09;108242;1284;21998;-63
2023/12/31 05:08:58;;;;;;;38.10;22.50;;;;;;;7.01;82.03;100836.14;108199;1284;22001;-63
2023/12/31 05:11:24;;;;;;;33.30;21.00;;;;;;;7.04;81.90;100839.84;108387;1284;21987;-63
2023/12/31 05:13:49;;;;;;;33.30;22.60;;;;;;;7.07;82.49;100842.83;107474;1279;1002427;-63
2023/12/31 05:16:15;;;;;;;37.10;23.80;;;;;;;7.12;82.76;100843.05;107351;1284;1003220;-61
2023/12/31 05:18:43;;;;;;;35.80;23.60;;;;;;;7.17;82.83;100848.16;108111;1280;22010;-63
2023/12/31 05:21:10;;;;;;;32.90;22.10;;;;;;;7.20;82.61;100852.04;108166;1281;21991;-57
2023/12/31 05:23:35;;;;;;;39.10;23.10;;;;;;;7.22;82.38;100851.88;108140;1283;22022;-61
2023/12/31 05:26:01;;;;;;;35.30;22.50;;;;;;;7.23;82.30;100854.67;108087;1285;22050;-60
2023/12/31 05:28:27;;;;;;;37.30;21.80;;;;;;;7.23;82.34;100854.50;108094;1280;22002;-60
2023/12/31 05:30:52;;;;;;;36.80;21.20;;;;;;;7.25;82.34;100855.39;108106;1285;22010;-60
2023/12/31 05:33:18;;;;;;;30.50;20.40;;;;;;;7.25;81.98;100857.67;108142;1273;21984;-59
2023/12/31 05:35:44;;;;;;;38.60;22.50;;;;;;;7.24;82.06;100860.10;108115;1272;21988;-60
2023/12/31 05:38:10;;;;;;;36.20;22.70;;;;;;;7.22;82.65;100862.00;108140;1285;21997;-57
2023/12/31 05:40:35;;;;;;;36.20;23.20;;;;;;;7.23;82.76;100868.83;107395;1277;1002417;-61
2023/12/31 05:43:03;;;;;;;37.00;21.90;;;;;;;7.25;82.87;100871.80;108185;1283;21995;-61
2023/12/31 05:45:29;;;;;;;34.90;21.00;;;;;;;7.27;82.89;100869.56;108131;1284;21989;-59
2023/12/31 05:47:54;;;;;;;36.50;21.00;;;;;;;7.30;82.78;100868.34;108156;1280;22005;-62
2023/12/31 05:50:20;;;;;;;35.20;21.60;;;;;;;7.32;82.71;100868.36;108154;1280;21998;-62
2023/12/31 05:52:46;;;;;;;35.30;22.40;;;;;;;7.34;82.71;100867.69;108141;1280;22010;-59
2023/12/31 05:55:11;;;;;;;39.00;23.80;;;;;;;7.36;82.66;100869.11;108137;1285;22002;-58
2023/12/31 05:57:38;;;;;;;39.50;23.30;;;;;;;7.36;82.48;100869.27;108169;1284;22028;-59
2023/12/31 06:00:05;;;;;;;39.10;23.60;;;;;;;7.39;82.34;100869.13;108148;1285;21993;-62
2023/12/31 06:02:31;;;;;;;37.40;22.60;;;;;;;7.42;82.46;100873.88;108193;1285;21987;-59
2023/12/31 06:04:57;;;;;;;32.90;22.10;;;;;;;7.43;82.33;100874.59;108263;1278;21992;-59
2023/12/31 06:07:23;;;;;;;33.40;21.60;;;;;;;7.42;81.88;100879.47;107492;1284;1002251;-59
2023/12/31 06:09:49;;;;;;;32.60;20.90;;;;;;;7.42;81.99;100879.11;108119;1282;21982;-62
2023/12/31 06:12:14;;;;;;;35.40;21.50;;;;;;;7.44;82.06;100884.73;108192;1274;21999;-60
2023/12/31 06:14:40;;;;;;;34.40;20.70;;;;;;;7.47;82.18;100880.90;108092;1284;22001;-59
2023/12/31 06:17:05;;;;;;;35.00;20.30;;;;;;;7.48;82.09;100887.38;108157;1280;21984;-62
2023/12/31 06:19:31;;;;;;;33.20;19.80;;;;;;;7.49;81.72;100891.75;108164;1284;22002;-62
2023/12/31 06:21:57;;;;;;;29.00;18.90;;;;;;;7.52;81.90;100891.59;108271;1280;22026;-62
2023/12/31 06:24:23;;;;;;;29.60;18.60;;;;;;;7.55;81.83;100894.40;107976;1285;21995;-61
2023/12/31 06:26:48;;;;;;;31.10;19.30;;;;;;;7.59;81.77;100896.89;108126;1284;22080;-61
2023/12/31 06:29:14;;;;;;;34.30;19.10;;;;;;;7.61;81.85;100894.81;108056;1277;21997;-60
2023/12/31 06:31:39;;;;;;;29.70;18.60;;;;;;;7.63;81.61;100887.66;108100;1280;21989;-62
2023/12/31 06:34:05;;;;;;;31.40;19.70;;;;;;;7.66;81.97;100889.79;108115;1274;22020;-63
2023/12/31 06:36:30;;;;;;;31.70;19.40;;;;;;;7.69;82.02;100889.29;108078;1284;21999;-60
2023/12/31 06:38:56;;;;;;;29.70;18.40;;;;;;;7.71;82.20;100887.39;108155;1285;21990;-64
2023/12/31 06:41:22;;;;;;;30.10;18.00;;;;;;;7.74;82.21;100882.68;108128;1284;21999;-59
2023/12/31 06:43:48;;;;;;;27.40;17.20;;;;;;;7.81;82.99;100882.03;108137;1280;21995;-60
2023/12/31 06:46:14;;;;;;;29.00;18.30;;;;;;;7.92;83.60;100886.84;108157;1282;22005;-60
2023/12/31 06:48:40;;;;;;;29.00;18.00;;;;;;;8.04;83.87;100893.73;108130;1277;21996;-61
2023/12/31 06:51:05;;;;;;;29.40;19.50;;;;;;;8.17;84.21;100893.11;108173;1284;22363;-60
2023/12/31 06:53:34;;;;;;;46.50;30.00;;;;;;;8.28;84.12;100892.81;108131;1284;22041;-62
2023/12/31 06:56:06;;;;;;;49.00;29.30;;;;;;;8.37;83.83;100897.23;108151;1284;21984;-62
2023/12/31 06:58:33;;;;;;;37.50;25.00;;;;;;;8.46;83.85;100904.27;108168;1281;21998;-60
2023/12/31 07:00:58;;;;;;;32.10;20.70;;;;;;;8.55;84.38;100916.59;108201;1284;21987;-60
2023/12/31 07:03:24;;;;;;;29.00;18.80;;;;;;;8.66;84.87;100923.10;107359;1272;1002259;-60
2023/12/31 07:05:50;;;;;;;26.80;17.80;;;;;;;8.77;85.18;100920.70;108093;1284;21998;-60
2023/12/31 07:08:15;;;;;;;25.00;17.20;;;;;;;8.88;85.03;100920.39;108132;1280;21993;-63
2023/12/31 07:10:42;;;;;;;28.20;17.90;;;;;;;8.96;84.58;100916.05;108118;1284;21992;-60
2023/12/31 07:13:08;;;;;;;25.90;16.10;;;;;;;9.06;84.72;100916.77;108207;1285;21999;-60
2023/12/31 07:15:34;;;;;;;26.70;16.50;;;;;;;9.17;84.82;100917.50;108080;1284;22446;-61
2023/12/31 07:18:00;;;;;;;30.70;18.60;;;;;;;9.28;84.93;100918.23;108200;1284;22068;-63
2023/12/31 07:20:25;;;;;;;27.40;17.20;;;;;;;9.40;85.63;100917.54;108181;1281;22142;-63
2023/12/31 07:22:53;;;;;;;26.50;18.20;;;;;;;9.52;85.92;100919.65;108096;1284;22048;-62
2023/12/31 07:25:20;;;;;;;25.20;17.60;;;;;;;9.61;85.85;100925.96;108124;1284;22074;-61
2023/12/31 07:27:46;;;;;;;26.20;17.60;;;;;;;9.73;86.53;100938.75;108158;1284;22042;-61
2023/12/31 07:30:11;;;;;;;28.30;17.20;;;;;;;9.86;86.94;100941.39;107345;1284;1002582;-60
2023/12/31 07:32:39;;;;;;;26.60;15.70;;;;;;;9.98;86.49;100939.27;108219;1284;21972;-61
2023/12/31 07:35:06;;;;;;;24.70;16.30;;;;;;;10.11;86.34;100943.46;108319;1284;22031;-61
2023/12/31 07:37:31;;;;;;;25.50;15.00;;;;;;;10.26;86.78;100943.45;108082;1284;21987;-61
2023/12/31 07:40:00;;;;;;;21.40;13.50;;;;;;;10.41;86.94;100947.47;108132;1284;22000;-63
2023/12/31 07:42:25;;;;;;;20.60;13.80;;;;;;;10.52;86.11;100954.29;106673;1280;1002467;-63
2023/12/31 07:44:51;;;;;;;20.70;13.30;;;;;;;10.63;85.76;100954.42;108103;1284;21998;-63
2023/12/31 07:47:17;;;;;;;21.70;14.10;;;;;;;10.77;85.96;100956.49;108212;1285;22015;-61
2023/12/31 07:49:42;;;;;;;21.70;14.10;;;;;;;10.88;85.56;100962.94;108140;1285;21994;-61
2023/12/31 07:52:08;;;;;;;24.10;15.70;;;;;;;10.96;85.32;100965.55;108200;1274;21998;-61
2023/12/31 07:54:34;;;;;;;23.60;14.90;;;;;;;11.01;84.78;100964.99;108142;1285;22031;-63
2023/12/31 07:57:00;;;;;;;24.40;15.10;;;;;;;11.04;84.22;100962.88;108096;1284;22013;-64
2023/12/31 07:59:26;;;;;;;27.20;16.60;;;;;;;11.08;83.59;100966.71;108072;1274;21995;-61
2023/12/31 08:01:52;;;;;;;30.10;18.00;;;;;;;11.12;83.70;100969.84;108092;1284;21998;-60
2023/12/31 08:04:17;;;;;;;25.20;17.20;;;;;;;11.19;83.97;100972.63;108100;1284;21985;-64
2023/12/31 08:06:43;;;;;;;28.20;18.40;;;;;;;11.26;84.13;100974.17;108076;1280;22054;-61
2023/12/31 08:09:12;;;;;;;27.60;17.70;;;;;;;11.35;84.52;100967.97;108080;1285;22001;-61
2023/12/31 08:11:38;;;;;;;39.90;23.30;;;;;;;11.44;84.76;100972.13;108088;1283;21991;-61
2023/12/31 08:14:04;;;;;;;49.30;28.30;;;;;;;11.53;84.89;100972.26;108182;1283;22016;-61
2023/12/31 08:16:29;;;;;;;44.10;26.20;;;;;;;11.61;84.56;100973.25;108353;1275;21997;-63
2023/12/31 08:18:55;;;;;;;45.30;25.40;;;;;;;11.67;83.97;100971.61;108295;1283;22156;-64
2023/12/31 08:21:22;;;;;;;46.80;25.90;;;;;;;11.75;83.76;100970.16;108106;1284;21993;-61
2023/12/31 08:23:47;;;;;;;46.70;27.70;;;;;;;11.83;83.56;100969.39;108133;1285;21991;-61
2023/12/31 08:26:13;;;;;;;71.90;39.20;;;;;;;11.92;83.51;100970.20;108082;1273;22039;-61
2023/12/31 08:28:39;;;;;;;71.30;39.50;;;;;;;11.97;82.97;100972.80;108111;1280;21989;-64
2023/12/31 08:31:05;;;;;;;35.00;23.50;;;;;;;11.97;81.77;100974.91;108082;1280;23715;-61
2023/12/31 08:33:31;;;;;;;40.40;25.30;;;;;;;12.03;81.99;100974.17;108311;1285;21995;-63
2023/12/31 08:35:56;;;;;;;42.40;25.50;;;;;;;12.13;82.65;100968.99;108071;1285;22029;-63
2023/12/31 08:38:22;;;;;;;48.10;29.60;;;;;;;12.19;82.35;100965.06;107986;1280;118439;-61
2023/12/31 08:40:48;;;;;;;64.90;36.20;;;;;;;12.24;82.08;100966.26;108110;1284;22001;-61
2023/12/31 08:43:15;;;;;;;39.40;25.00;;;;;;;12.31;82.18;100968.83;108069;1284;21990;-63
2023/12/31 08:45:43;;;;;;;24.30;15.60;;;;;;;12.39;82.15;100971.55;108244;1273;22511;-61
2023/12/31 08:48:10;;;;;;;18.50;12.70;;;;;;;12.50;82.53;100972.86;108160;1284;22455;-61
2023/12/31 08:50:36;;;;;;;21.70;14.40;;;;;;;12.59;82.23;100974.86;108150;1284;21992;-61
2023/12/31 08:53:02;;;;;;;22.80;14.50;;;;;;;12.70;82.44;100971.74;108152;1285;21998;-61
2023/12/31 08:55:28;;;;;;;20.80;13.00;;;;;;;12.81;82.19;100971.62;108073;1285;21991;-62
2023/12/31 08:57:54;;;;;;;19.30;12.30;;;;;;;12.93;82.10;100971.46;108134;1284;22167;-60
2023/12/31 09:00:19;;;;;;;20.20;12.00;;;;;;;13.05;81.71;100972.55;108075;1280;21986;-63
2023/12/31 09:02:46;;;;;;;19.80;13.10;;;;;;;13.13;80.44;100972.98;108111;1285;21999;-61
2023/12/31 09:05:11;;;;;;;16.90;11.00;;;;;;;13.18;78.14;100971.33;108138;1284;21998;-61
2023/12/31 09:07:37;;;;;;;17.80;12.40;;;;;;;13.28;78.15;100972.42;108050;1277;22229;-61
2023/12/31 09:10:03;;;;;;;15.50;10.40;;;;;;;13.37;77.69;100971.06;108155;1284;21987;-63
2023/12/31 09:12:30;;;;;;;17.50;10.80;;;;;;;13.48;77.97;100969.68;108089;1284;22001;-61
2023/12/31 09:14:55;;;;;;;19.60;12.80;;;;;;;13.57;78.18;100964.80;108076;1284;22113;-62
2023/12/31 09:17:22;;;;;;;18.50;12.10;;;;;;;13.60;75.89;100963.88;108125;1273;21992;-63
2023/12/31 09:19:48;;;;;;;15.70;10.10;;;;;;;13.59;73.51;100961.08;108111;1284;21995;-63
2023/12/31 09:22:13;;;;;;;15.90;10.70;;;;;;;13.68;73.15;100961.81;108085;1280;21990;-63
2023/12/31 09:24:39;;;;;;;17.00;10.90;;;;;;;13.79;73.78;100960.76;108257;1283;22000;-63
2023/12/31 09:27:07;;;;;;;16.60;11.50;;;;;;;13.87;74.77;100958.70;108276;1284;22474;-63
2023/12/31 09:29:36;;;;;;;20.30;13.60;;;;;;;13.95;75.66;100958.02;108186;1284;21992;-63
2023/12/31 09:32:03;;;;;;;18.40;12.60;;;;;;;14.03;76.11;100953.47;108209;1283;21989;-63
2023/12/31 09:34:29;;;;;;;20.20;13.30;;;;;;;14.12;75.15;100952.62;108317;1280;22195;-60
2023/12/31 09:36:54;;;;;;;20.00;13.20;;;;;;;14.14;73.32;100949.92;108065;1283;22002;-61
2023/12/31 09:39:20;;;;;;;15.30;10.50;;;;;;;14.18;74.35;100951.62;108140;1280;22024;-63
2023/12/31 09:41:49;;;;;;;14.60;10.00;;;;;;;14.26;75.21;100948.30;108093;1284;21986;-63
2023/12/31 09:44:17;;;;;;;13.00;8.90;;;;;;;14.35;74.72;100952.02;108125;1284;22021;-61
2023/12/31 09:46:43;;;;;;;17.20;11.10;;;;;;;14.49;74.36;100947.86;108254;1283;22000;-62
2023/12/31 09:49:09;;;;;;;22.20;10.50;;;;;;;14.61;74.46;100944.80;108140;1284;23123;-60
2023/12/31 09:51:34;;;;;;;19.90;12.60;;;;;;;14.70;74.00;100940.59;108096;1284;22032;-59
2023/12/31 09:54:00;;;;;;;20.50;13.10;;;;;;;14.76;73.49;100934.64;108100;1285;21986;-62
2023/12/31 09:56:25;;;;;;;18.60;13.10;;;;;;;14.84;73.38;100933.04;108133;1280;21999;-62
2023/12/31 09:58:51;;;;;;;15.70;10.70;;;;;;;14.92;72.47;100934.14;108129;1284;21989;-62
2023/12/31 10:01:17;;;;;;;21.70;12.90;;;;;;;15.02;73.05;100926.50;108066;1280;21983;-62
2023/12/31 10:03:44;;;;;;;19.80;13.40;;;;;;;15.09;72.35;100925.27;108101;1284;21985;-62
2023/12/31 10:06:09;;;;;;;16.20;9.80;;;;;;;15.18;72.64;100921.91;108121;1278;22051;-59
2023/12/31 10:08:35;;;;;;;16.60;11.10;;;;;;;15.28;72.53;100919.37;108076;1285;21992;-62
2023/12/31 10:11:00;;;;;;;18.90;10.70;;;;;;;15.37;69.30;100923.05;108141;1285;21998;-62
2023/12/31 10:13:30;;;;;;;17.60;10.10;;;;;;;15.42;69.48;100921.16;108061;1284;23049;-60
2023/12/31 10:15:56;;;;;;;9.50;6.70;;;;;;;15.49;69.35;100920.98;108067;1284;21985;-62
2023/12/31 10:18:25;;;;;;;7.80;5.40;;;;;;;15.57;68.65;100911.80;108026;1273;21989;-60
2023/12/31 10:20:52;;;;;;;10.40;5.50;;;;;;;15.61;68.08;100901.95;108055;1285;21995;-61
2023/12/31 10:23:18;;;;;;;7.40;4.20;;;;;;;15.70;68.50;100895.90;108102;1284;22032;-60
2023/12/31 10:25:44;;;;;;;8.70;4.60;;;;;;;15.69;65.05;100892.04;108074;1285;21990;-60
2023/12/31 10:28:10;;;;;;;7.60;3.80;;;;;;;15.76;65.97;100890.62;108175;1285;22485;-62
2023/12/31 10:30:39;;;;;;;6.70;3.90;;;;;;;15.83;64.23;100889.56;108252;1285;21999;-60
2023/12/31 10:33:13;;;;;;;7.80;4.20;;;;;;;15.87;64.67;100886.30;108303;1284;21991;-60
2023/12/31 10:35:39;;;;;;;8.50;5.00;;;;;;;15.95;65.05;100886.44;108095;1283;22958;-61
2023/12/31 10:38:05;;;;;;;16.00;7.40;;;;;;;16.04;65.55;100881.96;108066;1277;21998;-62
2023/12/31 10:40:34;;;;;;;15.40;6.60;;;;;;;16.12;65.47;100883.51;108107;1284;22000;-63
2023/12/31 10:43:00;;;;;;;12.50;5.90;;;;;;;16.26;66.46;100878.02;108019;1284;21995;-63
2023/12/31 10:45:31;;;;;;;7.00;4.20;;;;;;;16.42;65.28;100877.00;108066;1280;21997;-60
2023/12/31 10:48:01;;;;;;;6.70;3.50;;;;;;;16.49;63.56;100877.17;108107;1284;21999;-60
2023/12/31 10:50:27;;;;;;;14.90;4.80;;;;;;;16.50;62.43;100873.43;108031;1282;22010;-60
2023/12/31 10:52:56;;;;;;;9.00;3.00;;;;;;;16.53;62.43;100867.15;108112;1277;21983;-60
2023/12/31 10:55:22;;;;;;;22.10;13.30;;;;;;;16.59;62.29;100862.34;108094;1274;22020;-62
2023/12/31 10:57:47;;;;;;;12.10;7.40;;;;;;;16.67;63.25;100859.28;108023;1285;22001;-63
2023/12/31 11:00:15;;;;;;;10.60;5.30;;;;;;;16.70;59.41;100858.31;108145;1283;21986;-61
2023/12/31 11:02:44;;;;;;;16.90;10.60;;;;;;;16.75;61.13;100857.26;108346;1276;21989;-62